sensor_id;sensor_type;location;lat;lon;timestamp;P1;durP1;ratioP1;P2;durP2;ratioP2
61358;SDS011;47228;46.762;23.598;2023-08-21T00:01:38;12.40;;;8.70;;
61358;SDS011;47228;46.762;23.598;2023-08-21T00:04:06;10.40;;;8.40;;
61358;SDS011;47228;46.762;23.598;2023-08-21T00:06:35;11.40;;;8.20;;
61358;SDS011;47228;46.762;23.598;2023-08-21T00:09:03;10.10;;;8.50;;
61358;SDS011;47228;46.762;23.598;2023-08-21T00:11:31;10.50;;;8.00;;
61358;SDS011;47228;46.762;23.598;2023-08-21T00:13:58;11.20;;;8.30;;
61358;SDS011;47228;46.762;23.598;2023-08-21T00:16:26;11.20;;;8.70;;
61358;SDS011;47228;46.762;23.598;2023-08-21T00:18:56;10.10;;;8.50;;
61358;SDS011;47228;46.762;23.598;2023-08-21T00:21:24;13.40;;;8.80;;
61358;SDS011;47228;46.762;23.598;2023-08-21T00:23:51;12.10;;;9.30;;
61358;SDS011;47228;46.762;23.598;2023-08-21T00:26:19;11.00;;;8.60;;
61358;SDS011;47228;46.762;23.598;2023-08-21T00:28:47;12.00;;;8.40;;
61358;SDS011;47228;46.762;23.598;2023-08-21T00:31:15;10.10;;;8.40;;
61358;SDS011;47228;46.762;23.598;2023-08-21T00:33:43;11.20;;;8.40;;
61358;SDS011;47228;46.762;23.598;2023-08-21T00:36:11;12.00;;;9.40;;
61358;SDS011;47228;46.762;23.598;2023-08-21T00:38:39;12.80;;;8.90;;
61358;SDS011;47228;46.762;23.598;2023-08-21T00:41:08;10.80;;;8.90;;
61358;SDS011;47228;46.762;23.598;2023-08-21T00:43:35;9.30;;;8.40;;
61358;SDS011;47228;46.762;23.598;2023-08-21T00:46:04;9.90;;;8.70;;
61358;SDS011;47228;46.762;23.598;2023-08-21T00:48:33;11.30;;;8.90;;
61358;SDS011;47228;46.762;23.598;2023-08-21T00:51:02;9.20;;;8.20;;
61358;SDS011;47228;46.762;23.598;2023-08-21T00:53:31;10.00;;;8.60;;
61358;SDS011;47228;46.762;23.598;2023-08-21T00:56:00;11.00;;;8.90;;
61358;SDS011;47228;46.762;23.598;2023-08-21T00:58:28;10.40;;;8.80;;
61358;SDS011;47228;46.762;23.598;2023-08-21T01:00:56;10.60;;;8.20;;
61358;SDS011;47228;46.762;23.598;2023-08-21T01:03:25;9.50;;;8.50;;
61358;SDS011;47228;46.762;23.598;2023-08-21T01:05:54;10.40;;;9.30;;
61358;SDS011;47228;46.762;23.598;2023-08-21T01:11:05;10.50;;;8.50;;
61358;SDS011;47228;46.762;23.598;2023-08-21T01:16:13;12.30;;;8.60;;
61358;SDS011;47228;46.762;23.598;2023-08-21T01:18:43;10.30;;;8.90;;
61358;SDS011;47228;46.762;23.598;2023-08-21T01:21:15;12.10;;;9.00;;
61358;SDS011;47228;46.762;23.598;2023-08-21T01:23:44;13.00;;;9.10;;
61358;SDS011;47228;46.762;23.598;2023-08-21T01:26:12;10.30;;;8.90;;
61358;SDS011;47228;46.762;23.598;2023-08-21T01:28:40;11.60;;;9.40;;
61358;SDS011;47228;46.762;23.598;2023-08-21T01:31:09;9.70;;;8.40;;
61358;SDS011;47228;46.762;23.598;2023-08-21T01:33:48;11.10;;;8.50;;
61358;SDS011;47228;46.762;23.598;2023-08-21T01:36:24;11.90;;;8.80;;
61358;SDS011;47228;46.762;23.598;2023-08-21T01:38:53;9.70;;;8.60;;
61358;SDS011;47228;46.762;23.598;2023-08-21T01:41:24;10.60;;;8.90;;
61358;SDS011;47228;46.762;23.598;2023-08-21T01:43:52;10.70;;;8.50;;
61358;SDS011;47228;46.762;23.598;2023-08-21T01:46:20;10.20;;;8.90;;
61358;SDS011;47228;46.762;23.598;2023-08-21T01:48:48;10.30;;;8.50;;
61358;SDS011;47228;46.762;23.598;2023-08-21T01:51:16;9.60;;;8.60;;
61358;SDS011;47228;46.762;23.598;2023-08-21T01:53:44;12.20;;;9.40;;
61358;SDS011;47228;46.762;23.598;2023-08-21T01:56:12;9.70;;;8.80;;
61358;SDS011;47228;46.762;23.598;2023-08-21T01:58:40;9.30;;;8.30;;
61358;SDS011;47228;46.762;23.598;2023-08-21T02:01:08;12.20;;;8.90;;
61358;SDS011;47228;46.762;23.598;2023-08-21T02:03:36;11.80;;;9.00;;
61358;SDS011;47228;46.762;23.598;2023-08-21T02:06:04;14.30;;;8.80;;
61358;SDS011;47228;46.762;23.598;2023-08-21T02:08:32;11.50;;;9.30;;
61358;SDS011;47228;46.762;23.598;2023-08-21T02:11:01;12.50;;;8.90;;
61358;SDS011;47228;46.762;23.598;2023-08-21T02:13:29;10.80;;;9.30;;
61358;SDS011;47228;46.762;23.598;2023-08-21T02:15:57;12.20;;;8.60;;
61358;SDS011;47228;46.762;23.598;2023-08-21T02:18:25;15.50;;;8.20;;
61358;SDS011;47228;46.762;23.598;2023-08-21T02:20:53;11.20;;;8.70;;
61358;SDS011;47228;46.762;23.598;2023-08-21T02:23:21;10.20;;;8.60;;
61358;SDS011;47228;46.762;23.598;2023-08-21T02:25:51;10.40;;;9.30;;
61358;SDS011;47228;46.762;23.598;2023-08-21T02:28:19;11.00;;;8.60;;
61358;SDS011;47228;46.762;23.598;2023-08-21T02:30:47;10.70;;;8.80;;
61358;SDS011;47228;46.762;23.598;2023-08-21T02:33:15;12.50;;;9.00;;
61358;SDS011;47228;46.762;23.598;2023-08-21T02:35:43;10.50;;;8.70;;
61358;SDS011;47228;46.762;23.598;2023-08-21T02:38:12;9.90;;;8.80;;
61358;SDS011;47228;46.762;23.598;2023-08-21T02:40:40;9.90;;;8.60;;
61358;SDS011;47228;46.762;23.598;2023-08-21T02:43:07;9.70;;;8.70;;
61358;SDS011;47228;46.762;23.598;2023-08-21T02:45:35;10.20;;;8.50;;
61358;SDS011;47228;46.762;23.598;2023-08-21T02:48:03;9.50;;;8.50;;
61358;SDS011;47228;46.762;23.598;2023-08-21T02:50:32;13.80;;;8.70;;
61358;SDS011;47228;46.762;23.598;2023-08-21T02:53:00;10.70;;;8.70;;
61358;SDS011;47228;46.762;23.598;2023-08-21T02:55:28;10.70;;;8.60;;
61358;SDS011;47228;46.762;23.598;2023-08-21T02:57:56;12.80;;;9.10;;
61358;SDS011;47228;46.762;23.598;2023-08-21T03:00:23;10.40;;;8.40;;
61358;SDS011;47228;46.762;23.598;2023-08-21T03:02:51;10.70;;;8.80;;
61358;SDS011;47228;46.762;23.598;2023-08-21T03:05:19;10.70;;;8.30;;
61358;SDS011;47228;46.762;23.598;2023-08-21T03:07:47;10.30;;;8.70;;
61358;SDS011;47228;46.762;23.598;2023-08-21T03:10:15;11.20;;;8.80;;
61358;SDS011;47228;46.762;23.598;2023-08-21T03:12:43;11.30;;;8.30;;
61358;SDS011;47228;46.762;23.598;2023-08-21T03:15:11;9.90;;;8.90;;
61358;SDS011;47228;46.762;23.598;2023-08-21T03:17:39;10.20;;;8.40;;
61358;SDS011;47228;46.762;23.598;2023-08-21T03:20:08;10.60;;;9.30;;
61358;SDS011;47228;46.762;23.598;2023-08-21T03:22:37;11.60;;;9.00;;
61358;SDS011;47228;46.762;23.598;2023-08-21T03:25:05;12.40;;;8.70;;
61358;SDS011;47228;46.762;23.598;2023-08-21T03:27:34;10.90;;;9.30;;
61358;SDS011;47228;46.762;23.598;2023-08-21T03:30:06;10.80;;;9.00;;
61358;SDS011;47228;46.762;23.598;2023-08-21T03:32:37;9.30;;;8.30;;
61358;SDS011;47228;46.762;23.598;2023-08-21T03:35:06;12.80;;;9.00;;
61358;SDS011;47228;46.762;23.598;2023-08-21T03:37:34;10.70;;;9.00;;
61358;SDS011;47228;46.762;23.598;2023-08-21T03:40:03;11.10;;;8.70;;
61358;SDS011;47228;46.762;23.598;2023-08-21T03:42:31;12.30;;;8.60;;
61358;SDS011;47228;46.762;23.598;2023-08-21T03:44:59;11.90;;;8.60;;
61358;SDS011;47228;46.762;23.598;2023-08-21T03:47:27;9.80;;;8.40;;
61358;SDS011;47228;46.762;23.598;2023-08-21T03:49:55;11.70;;;8.70;;
61358;SDS011;47228;46.762;23.598;2023-08-21T03:52:24;11.90;;;8.40;;
61358;SDS011;47228;46.762;23.598;2023-08-21T03:54:51;12.40;;;9.00;;
61358;SDS011;47228;46.762;23.598;2023-08-21T03:57:20;9.70;;;8.60;;
61358;SDS011;47228;46.762;23.598;2023-08-21T03:59:48;10.60;;;8.80;;
61358;SDS011;47228;46.762;23.598;2023-08-21T04:02:16;16.60;;;9.40;;
61358;SDS011;47228;46.762;23.598;2023-08-21T04:04:44;13.10;;;9.10;;
61358;SDS011;47228;46.762;23.598;2023-08-21T04:07:12;12.90;;;9.70;;
61358;SDS011;47228;46.762;23.598;2023-08-21T04:09:40;12.40;;;9.00;;
61358;SDS011;47228;46.762;23.598;2023-08-21T04:12:08;11.50;;;8.90;;
61358;SDS011;47228;46.762;23.598;2023-08-21T04:14:36;14.50;;;9.00;;
61358;SDS011;47228;46.762;23.598;2023-08-21T04:17:04;10.10;;;9.00;;
61358;SDS011;47228;46.762;23.598;2023-08-21T04:19:32;11.10;;;9.00;;
61358;SDS011;47228;46.762;23.598;2023-08-21T04:22:01;10.00;;;9.00;;
61358;SDS011;47228;46.762;23.598;2023-08-21T04:24:29;16.40;;;9.60;;
61358;SDS011;47228;46.762;23.598;2023-08-21T04:26:57;10.70;;;9.30;;
61358;SDS011;47228;46.762;23.598;2023-08-21T04:29:26;12.20;;;10.30;;
61358;SDS011;47228;46.762;23.598;2023-08-21T04:31:54;12.30;;;10.30;;
61358;SDS011;47228;46.762;23.598;2023-08-21T04:34:22;12.10;;;9.70;;
61358;SDS011;47228;46.762;23.598;2023-08-21T04:36:50;13.80;;;10.20;;
61358;SDS011;47228;46.762;23.598;2023-08-21T04:39:18;17.60;;;10.90;;
61358;SDS011;47228;46.762;23.598;2023-08-21T04:41:46;16.80;;;11.50;;
61358;SDS011;47228;46.762;23.598;2023-08-21T04:44:14;16.40;;;11.30;;
61358;SDS011;47228;46.762;23.598;2023-08-21T04:46:42;13.30;;;11.10;;
61358;SDS011;47228;46.762;23.598;2023-08-21T04:49:10;18.50;;;11.80;;
61358;SDS011;47228;46.762;23.598;2023-08-21T04:51:38;17.10;;;11.50;;
61358;SDS011;47228;46.762;23.598;2023-08-21T04:54:06;20.90;;;11.60;;
61358;SDS011;47228;46.762;23.598;2023-08-21T04:56:34;19.00;;;12.00;;
61358;SDS011;47228;46.762;23.598;2023-08-21T04:59:02;17.10;;;12.60;;
61358;SDS011;47228;46.762;23.598;2023-08-21T05:01:30;18.40;;;12.80;;
61358;SDS011;47228;46.762;23.598;2023-08-21T05:03:58;16.40;;;12.40;;
61358;SDS011;47228;46.762;23.598;2023-08-21T05:06:26;17.40;;;12.30;;
61358;SDS011;47228;46.762;23.598;2023-08-21T05:08:54;13.50;;;11.90;;
61358;SDS011;47228;46.762;23.598;2023-08-21T05:11:22;16.00;;;11.90;;
61358;SDS011;47228;46.762;23.598;2023-08-21T05:13:50;19.10;;;12.50;;
61358;SDS011;47228;46.762;23.598;2023-08-21T05:16:18;14.50;;;11.20;;
61358;SDS011;47228;46.762;23.598;2023-08-21T05:18:46;16.20;;;12.10;;
61358;SDS011;47228;46.762;23.598;2023-08-21T05:21:14;19.30;;;12.10;;
61358;SDS011;47228;46.762;23.598;2023-08-21T05:23:42;19.40;;;12.60;;
61358;SDS011;47228;46.762;23.598;2023-08-21T05:26:10;17.50;;;12.20;;
61358;SDS011;47228;46.762;23.598;2023-08-21T05:28:38;15.60;;;11.60;;
61358;SDS011;47228;46.762;23.598;2023-08-21T05:31:06;19.00;;;12.50;;
61358;SDS011;47228;46.762;23.598;2023-08-21T05:33:34;19.30;;;13.10;;
61358;SDS011;47228;46.762;23.598;2023-08-21T05:36:02;16.70;;;11.80;;
61358;SDS011;47228;46.762;23.598;2023-08-21T05:38:30;18.00;;;12.60;;
61358;SDS011;47228;46.762;23.598;2023-08-21T05:40:58;20.20;;;11.80;;
61358;SDS011;47228;46.762;23.598;2023-08-21T05:43:26;18.30;;;12.00;;
61358;SDS011;47228;46.762;23.598;2023-08-21T05:45:54;19.90;;;12.10;;
61358;SDS011;47228;46.762;23.598;2023-08-21T05:48:22;15.40;;;12.40;;
61358;SDS011;47228;46.762;23.598;2023-08-21T05:50:50;15.80;;;12.00;;
61358;SDS011;47228;46.762;23.598;2023-08-21T05:53:22;17.20;;;12.40;;
61358;SDS011;47228;46.762;23.598;2023-08-21T05:55:50;15.90;;;11.60;;
61358;SDS011;47228;46.762;23.598;2023-08-21T05:58:18;15.40;;;11.50;;
61358;SDS011;47228;46.762;23.598;2023-08-21T06:00:46;16.20;;;11.00;;
61358;SDS011;47228;46.762;23.598;2023-08-21T06:03:15;14.70;;;11.50;;
61358;SDS011;47228;46.762;23.598;2023-08-21T06:05:43;16.80;;;12.20;;
61358;SDS011;47228;46.762;23.598;2023-08-21T06:08:11;17.90;;;12.10;;
61358;SDS011;47228;46.762;23.598;2023-08-21T06:10:39;15.50;;;11.30;;
61358;SDS011;47228;46.762;23.598;2023-08-21T06:13:07;14.80;;;11.60;;
61358;SDS011;47228;46.762;23.598;2023-08-21T06:15:35;15.30;;;11.50;;
61358;SDS011;47228;46.762;23.598;2023-08-21T06:18:03;14.30;;;10.00;;
61358;SDS011;47228;46.762;23.598;2023-08-21T06:20:31;13.80;;;10.10;;
61358;SDS011;47228;46.762;23.598;2023-08-21T06:22:59;14.30;;;10.60;;
61358;SDS011;47228;46.762;23.598;2023-08-21T06:25:27;15.60;;;10.90;;
61358;SDS011;47228;46.762;23.598;2023-08-21T06:27:58;16.00;;;10.30;;
61358;SDS011;47228;46.762;23.598;2023-08-21T06:30:26;13.60;;;10.60;;
61358;SDS011;47228;46.762;23.598;2023-08-21T06:32:55;14.20;;;11.10;;
61358;SDS011;47228;46.762;23.598;2023-08-21T06:35:23;18.20;;;12.10;;
61358;SDS011;47228;46.762;23.598;2023-08-21T06:37:51;16.10;;;11.30;;
61358;SDS011;47228;46.762;23.598;2023-08-21T06:40:19;16.60;;;10.10;;
61358;SDS011;47228;46.762;23.598;2023-08-21T06:42:47;20.00;;;10.50;;
61358;SDS011;47228;46.762;23.598;2023-08-21T06:45:18;14.90;;;10.50;;
61358;SDS011;47228;46.762;23.598;2023-08-21T06:47:46;18.50;;;11.10;;
61358;SDS011;47228;46.762;23.598;2023-08-21T06:50:14;16.70;;;10.30;;
61358;SDS011;47228;46.762;23.598;2023-08-21T06:52:43;19.00;;;11.30;;
61358;SDS011;47228;46.762;23.598;2023-08-21T06:55:11;16.00;;;10.70;;
61358;SDS011;47228;46.762;23.598;2023-08-21T06:57:39;13.70;;;9.90;;
61358;SDS011;47228;46.762;23.598;2023-08-21T07:00:07;15.50;;;10.30;;
61358;SDS011;47228;46.762;23.598;2023-08-21T07:02:36;12.10;;;10.30;;
61358;SDS011;47228;46.762;23.598;2023-08-21T07:05:04;12.20;;;9.60;;
61358;SDS011;47228;46.762;23.598;2023-08-21T07:07:32;10.60;;;9.30;;
61358;SDS011;47228;46.762;23.598;2023-08-21T07:10:00;18.00;;;10.40;;
61358;SDS011;47228;46.762;23.598;2023-08-21T07:12:28;12.70;;;9.20;;
61358;SDS011;47228;46.762;23.598;2023-08-21T07:14:57;16.40;;;9.50;;
61358;SDS011;47228;46.762;23.598;2023-08-21T07:17:25;17.30;;;9.60;;
61358;SDS011;47228;46.762;23.598;2023-08-21T07:19:53;11.30;;;9.00;;
61358;SDS011;47228;46.762;23.598;2023-08-21T07:22:21;11.10;;;9.10;;
61358;SDS011;47228;46.762;23.598;2023-08-21T07:24:50;12.30;;;9.20;;
61358;SDS011;47228;46.762;23.598;2023-08-21T07:27:18;11.40;;;8.80;;
61358;SDS011;47228;46.762;23.598;2023-08-21T07:29:46;15.10;;;10.30;;
61358;SDS011;47228;46.762;23.598;2023-08-21T07:32:14;14.20;;;9.50;;
61358;SDS011;47228;46.762;23.598;2023-08-21T07:34:42;15.90;;;8.90;;
61358;SDS011;47228;46.762;23.598;2023-08-21T07:37:10;15.80;;;9.40;;
61358;SDS011;47228;46.762;23.598;2023-08-21T07:39:38;12.10;;;9.20;;
61358;SDS011;47228;46.762;23.598;2023-08-21T07:42:06;13.30;;;8.60;;
61358;SDS011;47228;46.762;23.598;2023-08-21T07:44:34;12.50;;;8.10;;
61358;SDS011;47228;46.762;23.598;2023-08-21T07:47:01;14.40;;;9.10;;
61358;SDS011;47228;46.762;23.598;2023-08-21T07:49:30;18.60;;;9.70;;
61358;SDS011;47228;46.762;23.598;2023-08-21T07:51:59;14.60;;;9.00;;
61358;SDS011;47228;46.762;23.598;2023-08-21T07:54:27;19.50;;;10.00;;
61358;SDS011;47228;46.762;23.598;2023-08-21T07:56:58;15.10;;;9.10;;
61358;SDS011;47228;46.762;23.598;2023-08-21T07:59:26;16.00;;;8.90;;
61358;SDS011;47228;46.762;23.598;2023-08-21T08:01:54;15.20;;;9.80;;
61358;SDS011;47228;46.762;23.598;2023-08-21T08:04:23;16.60;;;9.60;;
61358;SDS011;47228;46.762;23.598;2023-08-21T08:06:51;16.20;;;9.40;;
61358;SDS011;47228;46.762;23.598;2023-08-21T08:09:19;16.10;;;9.10;;
61358;SDS011;47228;46.762;23.598;2023-08-21T08:11:47;17.40;;;9.20;;
61358;SDS011;47228;46.762;23.598;2023-08-21T08:14:15;18.00;;;9.70;;
61358;SDS011;47228;46.762;23.598;2023-08-21T08:16:44;12.80;;;9.00;;
61358;SDS011;47228;46.762;23.598;2023-08-21T08:19:12;16.00;;;9.10;;
61358;SDS011;47228;46.762;23.598;2023-08-21T08:21:40;21.90;;;9.90;;
61358;SDS011;47228;46.762;23.598;2023-08-21T08:24:08;14.70;;;9.80;;
61358;SDS011;47228;46.762;23.598;2023-08-21T08:26:36;15.90;;;10.00;;
61358;SDS011;47228;46.762;23.598;2023-08-21T08:29:04;14.30;;;9.50;;
61358;SDS011;47228;46.762;23.598;2023-08-21T08:31:35;11.10;;;8.30;;
61358;SDS011;47228;46.762;23.598;2023-08-21T08:34:03;16.00;;;8.90;;
61358;SDS011;47228;46.762;23.598;2023-08-21T08:36:31;13.50;;;8.70;;
61358;SDS011;47228;46.762;23.598;2023-08-21T08:38:59;14.10;;;8.50;;
61358;SDS011;47228;46.762;23.598;2023-08-21T08:41:32;13.60;;;8.90;;
61358;SDS011;47228;46.762;23.598;2023-08-21T08:44:06;13.00;;;8.70;;
61358;SDS011;47228;46.762;23.598;2023-08-21T08:46:35;14.00;;;9.30;;
61358;SDS011;47228;46.762;23.598;2023-08-21T08:49:04;11.60;;;8.40;;
61358;SDS011;47228;46.762;23.598;2023-08-21T08:51:32;12.90;;;8.50;;
61358;SDS011;47228;46.762;23.598;2023-08-21T08:54:02;12.90;;;9.20;;
61358;SDS011;47228;46.762;23.598;2023-08-21T08:56:31;12.90;;;8.60;;
61358;SDS011;47228;46.762;23.598;2023-08-21T08:58:59;14.00;;;9.00;;
61358;SDS011;47228;46.762;23.598;2023-08-21T09:01:27;13.40;;;7.90;;
61358;SDS011;47228;46.762;23.598;2023-08-21T09:03:56;9.90;;;7.60;;
61358;SDS011;47228;46.762;23.598;2023-08-21T09:06:24;13.50;;;8.00;;
61358;SDS011;47228;46.762;23.598;2023-08-21T09:08:54;14.30;;;8.30;;
61358;SDS011;47228;46.762;23.598;2023-08-21T09:11:23;12.60;;;8.20;;
61358;SDS011;47228;46.762;23.598;2023-08-21T09:13:52;13.10;;;7.90;;
61358;SDS011;47228;46.762;23.598;2023-08-21T09:16:23;14.00;;;8.10;;
61358;SDS011;47228;46.762;23.598;2023-08-21T09:18:54;9.50;;;7.00;;
61358;SDS011;47228;46.762;23.598;2023-08-21T09:21:26;9.50;;;7.20;;
61358;SDS011;47228;46.762;23.598;2023-08-21T09:23:57;11.40;;;7.80;;
61358;SDS011;47228;46.762;23.598;2023-08-21T09:26:27;10.60;;;8.40;;
61358;SDS011;47228;46.762;23.598;2023-08-21T09:28:58;9.00;;;8.00;;
61358;SDS011;47228;46.762;23.598;2023-08-21T09:31:31;16.90;;;9.80;;
61358;SDS011;47228;46.762;23.598;2023-08-21T09:34:02;15.60;;;8.70;;
61358;SDS011;47228;46.762;23.598;2023-08-21T09:36:32;11.70;;;7.80;;
61358;SDS011;47228;46.762;23.598;2023-08-21T09:39:01;12.10;;;8.00;;
61358;SDS011;47228;46.762;23.598;2023-08-21T09:41:31;14.70;;;8.60;;
61358;SDS011;47228;46.762;23.598;2023-08-21T09:43:59;9.40;;;6.80;;
61358;SDS011;47228;46.762;23.598;2023-08-21T09:46:28;9.80;;;7.00;;
61358;SDS011;47228;46.762;23.598;2023-08-21T09:48:56;10.20;;;7.00;;
61358;SDS011;47228;46.762;23.598;2023-08-21T09:51:25;13.20;;;7.10;;
61358;SDS011;47228;46.762;23.598;2023-08-21T09:53:54;9.50;;;7.20;;
61358;SDS011;47228;46.762;23.598;2023-08-21T09:56:23;11.00;;;7.20;;
61358;SDS011;47228;46.762;23.598;2023-08-21T09:58:52;9.40;;;6.30;;
61358;SDS011;47228;46.762;23.598;2023-08-21T10:01:20;10.90;;;6.60;;
61358;SDS011;47228;46.762;23.598;2023-08-21T10:03:49;9.60;;;6.40;;
61358;SDS011;47228;46.762;23.598;2023-08-21T10:06:22;8.10;;;5.70;;
61358;SDS011;47228;46.762;23.598;2023-08-21T10:08:53;10.30;;;5.90;;
61358;SDS011;47228;46.762;23.598;2023-08-21T10:11:22;7.50;;;6.00;;
61358;SDS011;47228;46.762;23.598;2023-08-21T10:13:50;9.20;;;5.70;;
61358;SDS011;47228;46.762;23.598;2023-08-21T10:16:19;7.00;;;5.50;;
61358;SDS011;47228;46.762;23.598;2023-08-21T10:18:50;9.50;;;6.00;;
61358;SDS011;47228;46.762;23.598;2023-08-21T10:21:20;8.40;;;5.50;;
61358;SDS011;47228;46.762;23.598;2023-08-21T10:23:50;11.90;;;5.90;;
61358;SDS011;47228;46.762;23.598;2023-08-21T10:26:19;18.90;;;5.90;;
61358;SDS011;47228;46.762;23.598;2023-08-21T10:34:04;6.90;;;4.80;;
61358;SDS011;47228;46.762;23.598;2023-08-21T10:37:02;9.50;;;5.20;;
61358;SDS011;47228;46.762;23.598;2023-08-21T10:39:28;9.40;;;5.30;;
61358;SDS011;47228;46.762;23.598;2023-08-21T10:42:01;7.10;;;5.10;;
61358;SDS011;47228;46.762;23.598;2023-08-21T10:49:58;7.80;;;5.00;;
61358;SDS011;47228;46.762;23.598;2023-08-21T10:52:37;7.10;;;5.10;;
61358;SDS011;47228;46.762;23.598;2023-08-21T10:55:21;7.10;;;4.80;;
61358;SDS011;47228;46.762;23.598;2023-08-21T10:57:49;8.40;;;5.40;;
61358;SDS011;47228;46.762;23.598;2023-08-21T11:00:18;6.40;;;4.40;;
61358;SDS011;47228;46.762;23.598;2023-08-21T11:02:48;7.40;;;4.80;;
61358;SDS011;47228;46.762;23.598;2023-08-21T11:05:18;6.50;;;4.50;;
61358;SDS011;47228;46.762;23.598;2023-08-21T11:07:47;7.30;;;5.20;;
61358;SDS011;47228;46.762;23.598;2023-08-21T11:10:17;6.40;;;4.80;;
61358;SDS011;47228;46.762;23.598;2023-08-21T11:12:56;9.40;;;4.80;;
61358;SDS011;47228;46.762;23.598;2023-08-21T11:15:26;7.90;;;4.40;;
61358;SDS011;47228;46.762;23.598;2023-08-21T11:20:32;6.30;;;4.40;;
61358;SDS011;47228;46.762;23.598;2023-08-21T11:23:05;8.60;;;5.00;;
61358;SDS011;47228;46.762;23.598;2023-08-21T11:25:40;7.20;;;4.90;;
61358;SDS011;47228;46.762;23.598;2023-08-21T11:28:08;6.20;;;4.20;;
61358;SDS011;47228;46.762;23.598;2023-08-21T11:30:36;8.20;;;4.40;;
61358;SDS011;47228;46.762;23.598;2023-08-21T11:33:08;5.10;;;4.10;;
61358;SDS011;47228;46.762;23.598;2023-08-21T11:35:38;15.00;;;4.90;;
61358;SDS011;47228;46.762;23.598;2023-08-21T11:38:15;6.70;;;4.60;;
61358;SDS011;47228;46.762;23.598;2023-08-21T11:40:57;7.60;;;4.60;;
61358;SDS011;47228;46.762;23.598;2023-08-21T11:43:40;8.80;;;5.20;;
61358;SDS011;47228;46.762;23.598;2023-08-21T11:46:09;7.10;;;4.90;;
61358;SDS011;47228;46.762;23.598;2023-08-21T11:48:39;7.40;;;4.50;;
61358;SDS011;47228;46.762;23.598;2023-08-21T11:51:08;6.50;;;4.70;;
61358;SDS011;47228;46.762;23.598;2023-08-21T11:53:37;10.20;;;4.80;;
61358;SDS011;47228;46.762;23.598;2023-08-21T11:56:11;10.20;;;5.20;;
61358;SDS011;47228;46.762;23.598;2023-08-21T11:58:41;10.00;;;5.00;;
61358;SDS011;47228;46.762;23.598;2023-08-21T12:01:16;8.00;;;5.20;;
61358;SDS011;47228;46.762;23.598;2023-08-21T12:03:45;7.70;;;4.90;;
61358;SDS011;47228;46.762;23.598;2023-08-21T12:06:14;6.30;;;4.90;;
61358;SDS011;47228;46.762;23.598;2023-08-21T12:08:42;7.40;;;4.70;;
61358;SDS011;47228;46.762;23.598;2023-08-21T12:11:10;8.90;;;4.80;;
61358;SDS011;47228;46.762;23.598;2023-08-21T12:13:39;6.90;;;5.40;;
61358;SDS011;47228;46.762;23.598;2023-08-21T12:16:07;7.20;;;5.20;;
61358;SDS011;47228;46.762;23.598;2023-08-21T12:18:36;8.30;;;5.60;;
61358;SDS011;47228;46.762;23.598;2023-08-21T12:21:04;11.00;;;5.40;;
61358;SDS011;47228;46.762;23.598;2023-08-21T12:23:32;7.50;;;4.80;;
61358;SDS011;47228;46.762;23.598;2023-08-21T12:26:00;8.20;;;5.30;;
61358;SDS011;47228;46.762;23.598;2023-08-21T12:28:28;9.40;;;5.50;;
61358;SDS011;47228;46.762;23.598;2023-08-21T12:30:56;7.40;;;5.50;;
61358;SDS011;47228;46.762;23.598;2023-08-21T12:33:24;9.00;;;5.00;;
61358;SDS011;47228;46.762;23.598;2023-08-21T12:35:52;8.80;;;5.40;;
61358;SDS011;47228;46.762;23.598;2023-08-21T12:38:20;13.00;;;5.30;;
61358;SDS011;47228;46.762;23.598;2023-08-21T12:40:49;8.40;;;5.00;;
61358;SDS011;47228;46.762;23.598;2023-08-21T12:43:17;7.90;;;4.90;;
61358;SDS011;47228;46.762;23.598;2023-08-21T12:45:45;5.80;;;5.10;;
61358;SDS011;47228;46.762;23.598;2023-08-21T12:48:13;6.60;;;5.00;;
61358;SDS011;47228;46.762;23.598;2023-08-21T12:50:42;7.20;;;5.20;;
61358;SDS011;47228;46.762;23.598;2023-08-21T12:53:10;6.90;;;4.50;;
61358;SDS011;47228;46.762;23.598;2023-08-21T12:55:38;8.00;;;5.30;;
61358;SDS011;47228;46.762;23.598;2023-08-21T12:58:06;7.70;;;5.30;;
61358;SDS011;47228;46.762;23.598;2023-08-21T13:00:34;8.20;;;5.00;;
61358;SDS011;47228;46.762;23.598;2023-08-21T13:03:02;6.10;;;5.00;;
61358;SDS011;47228;46.762;23.598;2023-08-21T13:05:31;9.90;;;6.30;;
61358;SDS011;47228;46.762;23.598;2023-08-21T13:07:59;7.40;;;5.30;;
61358;SDS011;47228;46.762;23.598;2023-08-21T13:10:27;7.20;;;4.80;;
61358;SDS011;47228;46.762;23.598;2023-08-21T13:12:55;7.60;;;5.10;;
61358;SDS011;47228;46.762;23.598;2023-08-21T13:15:23;24.20;;;5.10;;
61358;SDS011;47228;46.762;23.598;2023-08-21T13:17:51;6.40;;;5.20;;
61358;SDS011;47228;46.762;23.598;2023-08-21T13:20:20;7.70;;;5.10;;
61358;SDS011;47228;46.762;23.598;2023-08-21T13:22:51;9.80;;;5.00;;
61358;SDS011;47228;46.762;23.598;2023-08-21T13:25:20;7.20;;;5.30;;
61358;SDS011;47228;46.762;23.598;2023-08-21T13:27:50;8.20;;;5.00;;
61358;SDS011;47228;46.762;23.598;2023-08-21T13:30:19;11.00;;;5.10;;
61358;SDS011;47228;46.762;23.598;2023-08-21T13:32:48;6.20;;;5.10;;
61358;SDS011;47228;46.762;23.598;2023-08-21T13:35:16;6.90;;;4.70;;
61358;SDS011;47228;46.762;23.598;2023-08-21T13:37:45;9.60;;;4.70;;
61358;SDS011;47228;46.762;23.598;2023-08-21T13:40:13;7.80;;;4.50;;
61358;SDS011;47228;46.762;23.598;2023-08-21T13:42:44;8.20;;;4.90;;
61358;SDS011;47228;46.762;23.598;2023-08-21T13:45:16;9.50;;;4.90;;
61358;SDS011;47228;46.762;23.598;2023-08-21T13:47:46;7.70;;;5.00;;
61358;SDS011;47228;46.762;23.598;2023-08-21T13:50:17;7.50;;;4.90;;
61358;SDS011;47228;46.762;23.598;2023-08-21T13:52:46;7.20;;;4.80;;
61358;SDS011;47228;46.762;23.598;2023-08-21T13:55:15;6.30;;;4.60;;
61358;SDS011;47228;46.762;23.598;2023-08-21T13:57:45;7.10;;;5.00;;
61358;SDS011;47228;46.762;23.598;2023-08-21T14:00:13;9.80;;;4.60;;
61358;SDS011;47228;46.762;23.598;2023-08-21T14:02:41;8.20;;;4.90;;
61358;SDS011;47228;46.762;23.598;2023-08-21T14:05:10;6.60;;;4.60;;
61358;SDS011;47228;46.762;23.598;2023-08-21T14:07:39;7.30;;;4.50;;
61358;SDS011;47228;46.762;23.598;2023-08-21T14:10:09;7.80;;;4.90;;
61358;SDS011;47228;46.762;23.598;2023-08-21T14:12:37;6.20;;;4.50;;
61358;SDS011;47228;46.762;23.598;2023-08-21T14:15:09;6.40;;;4.70;;
61358;SDS011;47228;46.762;23.598;2023-08-21T14:17:38;10.20;;;5.00;;
61358;SDS011;47228;46.762;23.598;2023-08-21T14:20:07;8.50;;;4.60;;
61358;SDS011;47228;46.762;23.598;2023-08-21T14:22:36;8.00;;;4.40;;
61358;SDS011;47228;46.762;23.598;2023-08-21T14:25:04;6.80;;;4.30;;
61358;SDS011;47228;46.762;23.598;2023-08-21T14:27:35;7.50;;;4.60;;
61358;SDS011;47228;46.762;23.598;2023-08-21T14:30:04;5.60;;;4.40;;
61358;SDS011;47228;46.762;23.598;2023-08-21T14:32:34;6.80;;;4.80;;
61358;SDS011;47228;46.762;23.598;2023-08-21T14:35:05;5.60;;;4.20;;
61358;SDS011;47228;46.762;23.598;2023-08-21T14:37:36;7.10;;;4.70;;
61358;SDS011;47228;46.762;23.598;2023-08-21T14:40:04;7.60;;;4.50;;
61358;SDS011;47228;46.762;23.598;2023-08-21T14:42:38;7.10;;;4.50;;
61358;SDS011;47228;46.762;23.598;2023-08-21T14:45:07;7.00;;;4.30;;
61358;SDS011;47228;46.762;23.598;2023-08-21T14:47:35;8.00;;;4.70;;
61358;SDS011;47228;46.762;23.598;2023-08-21T14:50:05;8.10;;;4.60;;
61358;SDS011;47228;46.762;23.598;2023-08-21T14:52:33;6.90;;;4.40;;